Time;durP1;ratioP1;P1;durP2;ratioP2;P2;SDS_P1;SDS_P2;PMS_P1;PMS_P2;Temp;Humidity;BMP_temperature;BMP_pressure;BME280_temperature;BME280_humidity;BME280_pressure;Samples;Min_cycle;Max_cycle;Signal;HPM_P1;HPM_P2
2023/06/04 00:01:46;;;;;;;;;3.25;3.25;;;;;;;;5059779;28;8901;-89
2023/06/04 00:04:13;;;;;;;;;3.00;3.00;;;;;;;;5067469;28;8887;-91
2023/06/04 00:06:40;;;;;;;;;3.00;3.00;;;;;;;;5068475;28;8863;-93
2023/06/04 00:09:07;;;;;;;;;5.00;3.00;;;;;;;;5070946;28;8854;-90
2023/06/04 00:11:35;;;;;;;;;2.25;2.25;;;;;;;;5072736;28;9010;-90
2023/06/04 00:14:02;;;;;;;;;5.00;3.00;;;;;;;;5073902;28;8859;-87
2023/06/04 00:16:31;;;;;;;;;5.00;3.75;;;;;;;;5068583;28;8858;-83
2023/06/04 00:18:58;;;;;;;;;4.00;4.00;;;;;;;;5070560;28;8939;-84
2023/06/04 00:21:25;;;;;;;;;3.25;3.25;;;;;;;;5070900;28;8883;-82
2023/06/04 00:23:52;;;;;;;;;2.00;2.00;;;;;;;;5064911;28;8823;-88
2023/06/04 00:26:20;;;;;;;;;4.00;3.00;;;;;;;;5074211;28;8979;-85
2023/06/04 00:28:47;;;;;;;;;4.50;3.00;;;;;;;;5074656;28;8975;-89
2023/06/04 00:31:15;;;;;;;;;5.25;3.25;;;;;;;;5064891;28;8823;-81
2023/06/04 00:33:44;;;;;;;;;4.00;4.00;;;;;;;;5058585;28;8987;-82
2023/06/04 00:36:11;;;;;;;;;2.75;2.75;;;;;;;;5059997;28;9736;-91
2023/06/04 00:38:39;;;;;;;;;3.00;3.00;;;;;;;;5055258;28;8889;-83
2023/06/04 00:41:06;;;;;;;;;3.00;3.00;;;;;;;;5054786;28;9636;-81
2023/06/04 00:43:33;;;;;;;;;3.00;3.00;;;;;;;;5057313;28;9637;-81
2023/06/04 00:46:00;;;;;;;;;3.00;3.00;;;;;;;;5058066;28;8925;-83
2023/06/04 00:48:28;;;;;;;;;3.50;3.50;;;;;;;;5050943;28;8849;-82
2023/06/04 00:50:57;;;;;;;;;3.00;3.00;;;;;;;;5054679;28;8849;-82
2023/06/04 00:53:25;;;;;;;;;2.00;2.00;;;;;;;;5066214;28;9004;-83
2023/06/04 00:55:53;;;;;;;;;2.00;2.00;;;;;;;;5063281;28;8974;-83
2023/06/04 00:58:20;;;;;;;;;2.00;2.00;;;;;;;;5067922;28;8970;-83
2023/06/04 01:00:47;;;;;;;;;4.00;4.00;;;;;;;;5063349;28;8817;-82
2023/06/04 01:03:17;;;;;;;;;4.00;4.00;;;;;;;;5070913;28;9601;-87
2023/06/04 01:05:52;;;;;;;;;3.00;3.00;;;;;;;;5076265;28;8977;-86
2023/06/04 01:08:21;;;;;;;;;2.75;2.75;;;;;;;;5060232;28;8887;-85
2023/06/04 01:10:52;;;;;;;;;2.75;2.75;;;;;;;;5061312;28;10157;-87
2023/06/04 01:13:19;;;;;;;;;3.00;3.00;;;;;;;;5071002;28;8929;-88
2023/06/04 01:15:47;;;;;;;;;3.00;2.00;;;;;;;;5065073;28;8898;-90
2023/06/04 01:18:28;;;;;;;;;2.00;2.00;;;;;;;;5061063;28;8889;-87
2023/06/04 01:20:59;;;;;;;;;2.00;2.00;;;;;;;;5054220;28;8852;-85
2023/06/04 01:23:35;;;;;;;;;3.00;3.00;;;;;;;;5072681;28;8858;-88
2023/06/04 01:26:03;;;;;;;;;2.25;2.25;;;;;;;;5072002;28;8981;-90
2023/06/04 01:28:32;;;;;;;;;2.25;2.25;;;;;;;;5060076;28;8853;-90
2023/06/04 01:30:59;;;;;;;;;2.25;2.25;;;;;;;;5063102;28;8866;-88
2023/06/04 01:33:27;;;;;;;;;2.00;2.00;;;;;;;;5066090;28;8979;-88
2023/06/04 01:35:55;;;;;;;;;2.75;2.75;;;;;;;;5076991;28;8854;-85
2023/06/04 01:38:23;;;;;;;;;2.50;2.00;;;;;;;;5074104;28;8880;-89
2023/06/04 01:40:55;;;;;;;;;3.25;3.25;;;;;;;;5078279;28;8846;-89
2023/06/04 01:43:23;;;;;;;;;3.00;3.00;;;;;;;;5074638;28;8839;-92
2023/06/04 01:45:50;;;;;;;;;3.75;3.75;;;;;;;;5061742;28;9041;-91
2023/06/04 01:48:18;;;;;;;;;3.00;3.00;;;;;;;;5066503;28;8993;-88
2023/06/04 01:50:45;;;;;;;;;3.00;3.00;;;;;;;;5069609;28;9012;-90
2023/06/04 01:53:12;;;;;;;;;3.00;3.00;;;;;;;;5072110;28;8957;-91
2023/06/04 01:55:39;;;;;;;;;3.00;3.00;;;;;;;;5072908;28;9035;-91
2023/06/04 01:58:09;;;;;;;;;2.33;2.33;;;;;;;;5056227;28;9132;-84
2023/06/04 02:00:36;;;;;;;;;1.00;0.00;;;;;;;;5068206;28;9013;-84
2023/06/04 02:03:04;;;;;;;;;3.00;3.00;;;;;;;;5063854;28;9009;-83
2023/06/04 02:05:31;;;;;;;;;3.00;3.00;;;;;;;;5060367;28;9279;-92
2023/06/04 02:08:01;;;;;;;;;3.33;3.33;;;;;;;;5067018;28;9455;-86
2023/06/04 02:10:29;;;;;;;;;5.00;2.67;;;;;;;;5059946;28;9083;-85
2023/06/04 02:12:59;;;;;;;;;4.00;2.33;;;;;;;;5058859;28;9398;-85
2023/06/04 02:15:28;;;;;;;;;6.00;3.00;;;;;;;;5054488;28;9206;-85
2023/06/04 02:17:59;;;;;;;;;3.50;3.50;;;;;;;;5057796;28;9360;-84
2023/06/04 02:20:26;;;;;;;;;3.00;3.00;;;;;;;;5067292;28;9388;-89
2023/06/04 02:22:55;;;;;;;;;2.00;2.00;;;;;;;;5070016;28;9485;-85
2023/06/04 02:25:23;;;;;;;;;0.00;0.00;;;;;;;;5068761;28;9511;-87
2023/06/04 02:27:50;;;;;;;;;3.00;3.00;;;;;;;;5068164;28;9573;-88
2023/06/04 02:30:17;;;;;;;;;6.50;3.00;;;;;;;;5068901;28;9831;-85
2023/06/04 02:32:46;;;;;;;;;2.00;2.00;;;;;;;;5061804;28;9749;-82
2023/06/04 02:35:14;;;;;;;;;1.00;1.00;;;;;;;;5065112;28;9717;-81
2023/06/04 02:37:41;;;;;;;;;4.00;4.00;;;;;;;;5066735;28;9676;-81
2023/06/04 02:40:10;;;;;;;;;4.50;3.00;;;;;;;;5062996;28;9689;-85
2023/06/04 02:42:37;;;;;;;;;3.50;3.00;;;;;;;;5064336;28;9851;-82
2023/06/04 02:45:06;;;;;;;;;5.50;4.00;;;;;;;;5059283;28;9867;-88
2023/06/04 02:47:33;;;;;;;;;2.00;2.00;;;;;;;;5068208;28;10074;-87
2023/06/04 02:50:03;;;;;;;;;3.00;3.00;;;;;;;;5064989;28;9791;-85
2023/06/04 02:52:32;;;;;;;;;3.00;3.00;;;;;;;;5067720;28;10021;-89
2023/06/04 02:55:03;;;;;;;;;3.00;3.00;;;;;;;;5065555;28;10098;-85
2023/06/04 02:57:31;;;;;;;;;4.00;2.75;;;;;;;;5074294;28;10091;-87
2023/06/04 02:59:58;;;;;;;;;3.50;3.00;;;;;;;;5067543;28;10166;-82
2023/06/04 03:02:25;;;;;;;;;3.00;3.00;;;;;;;;5051722;28;10114;-85
2023/06/04 03:04:54;;;;;;;;;2.25;2.25;;;;;;;;5052305;28;10017;-91
2023/06/04 03:07:23;;;;;;;;;3.00;3.00;;;;;;;;5053866;28;10050;-91
2023/06/04 03:09:51;;;;;;;;;2.00;2.00;;;;;;;;5051288;28;10185;-91
2023/06/04 03:12:18;;;;;;;;;2.00;2.00;;;;;;;;5047105;28;10609;-87
2023/06/04 03:14:45;;;;;;;;;3.00;3.00;;;;;;;;5046205;28;10182;-87
2023/06/04 03:17:12;;;;;;;;;4.00;4.00;;;;;;;;5042660;28;10178;-90
2023/06/04 03:19:41;;;;;;;;;3.50;2.00;;;;;;;;5046702;28;10245;-87
2023/06/04 03:22:10;;;;;;;;;2.00;2.00;;;;;;;;5051452;28;10088;-89
2023/06/04 03:24:41;;;;;;;;;2.00;2.00;;;;;;;;5054191;28;10217;-90
2023/06/04 03:27:10;;;;;;;;;2.75;2.75;;;;;;;;5048522;28;9996;-90
2023/06/04 03:29:37;;;;;;;;;3.00;3.00;;;;;;;;5055579;28;10220;-90
2023/06/04 03:32:05;;;;;;;;;2.75;2.75;;;;;;;;5054719;28;9970;-89
2023/06/04 03:34:33;;;;;;;;;2.75;2.75;;;;;;;;5050001;28;10156;-89
2023/06/04 03:37:00;;;;;;;;;2.00;2.00;;;;;;;;5042844;28;10204;-88
2023/06/04 03:39:31;;;;;;;;;2.00;2.00;;;;;;;;5055424;28;10113;-92
2023/06/04 03:41:59;;;;;;;;;3.00;3.00;;;;;;;;5043838;28;10305;-89
2023/06/04 03:44:29;;;;;;;;;2.00;2.00;;;;;;;;5039053;28;10350;-89
2023/06/04 03:46:57;;;;;;;;;1.50;1.50;;;;;;;;5043346;28;10255;-87
2023/06/04 03:49:24;;;;;;;;;1.25;1.25;;;;;;;;5041446;28;10116;-88
2023/06/04 03:51:52;;;;;;;;;1.00;1.00;;;;;;;;5049067;28;10181;-88
2023/06/04 03:54:19;;;;;;;;;2.00;2.00;;;;;;;;5051863;28;10769;-85
2023/06/04 03:56:46;;;;;;;;;3.75;3.75;;;;;;;;5049885;28;10296;-89
2023/06/04 03:59:19;;;;;;;;;2.25;2.25;;;;;;;;5037918;28;10294;-85
2023/06/04 04:01:46;;;;;;;;;2.00;2.00;;;;;;;;5036893;28;10228;-87
2023/06/04 04:04:15;;;;;;;;;3.25;3.25;;;;;;;;5034162;28;10107;-89
2023/06/04 04:06:42;;;;;;;;;1.00;1.00;;;;;;;;5045485;28;10468;-90
2023/06/04 04:09:10;;;;;;;;;2.00;2.00;;;;;;;;5043777;28;10227;-88
2023/06/04 04:11:37;;;;;;;;;2.00;2.00;;;;;;;;5051187;28;10417;-85
2023/06/04 04:14:04;;;;;;;;;2.25;2.25;;;;;;;;5047223;28;10415;-86
2023/06/04 04:16:33;;;;;;;;;1.00;1.00;;;;;;;;5038201;28;10356;-82
2023/06/04 04:19:00;;;;;;;;;1.25;1.25;;;;;;;;5049458;28;11049;-85
2023/06/04 04:21:27;;;;;;;;;1.25;1.25;;;;;;;;5048878;28;10226;-84
2023/06/04 04:23:55;;;;;;;;;3.00;2.00;;;;;;;;5049566;28;10373;-89
2023/06/04 04:26:23;;;;;;;;;0.00;0.00;;;;;;;;5048372;28;10374;-83
2023/06/04 04:28:52;;;;;;;;;1.00;1.00;;;;;;;;5049058;28;10953;-81
2023/06/04 04:31:22;;;;;;;;;2.00;2.00;;;;;;;;5050600;28;10250;-81
2023/06/04 04:33:51;;;;;;;;;2.00;2.00;;;;;;;;5049752;28;10280;-81
2023/06/04 04:36:18;;;;;;;;;2.50;2.50;;;;;;;;5048876;28;10262;-88
2023/06/04 04:38:46;;;;;;;;;1.75;1.75;;;;;;;;5051533;28;10445;-84
2023/06/04 04:41:13;;;;;;;;;2.00;2.00;;;;;;;;5038526;28;10205;-89
2023/06/04 04:43:40;;;;;;;;;2.25;1.50;;;;;;;;5049748;28;10112;-88
2023/06/04 04:46:08;;;;;;;;;2.50;2.50;;;;;;;;5047694;28;10169;-88
2023/06/04 04:48:35;;;;;;;;;1.00;1.00;;;;;;;;5032095;28;9955;-87
2023/06/04 04:51:04;;;;;;;;;1.75;1.75;;;;;;;;5044514;28;10098;-87
2023/06/04 04:53:32;;;;;;;;;2.00;2.00;;;;;;;;5040629;28;10285;-88
2023/06/04 04:55:59;;;;;;;;;1.75;1.75;;;;;;;;5051953;28;10122;-89
2023/06/04 04:58:28;;;;;;;;;3.00;3.00;;;;;;;;5038851;28;10130;-88
2023/06/04 05:00:56;;;;;;;;;1.00;1.00;;;;;;;;5049462;28;9971;-85
2023/06/04 05:03:23;;;;;;;;;1.00;1.00;;;;;;;;5036693;28;10780;-81
2023/06/04 05:05:52;;;;;;;;;1.25;1.25;;;;;;;;5051264;28;9903;-80
2023/06/04 05:08:25;;;;;;;;;2.00;2.00;;;;;;;;5051290;28;9860;-83
2023/06/04 05:10:53;;;;;;;;;0.50;0.00;;;;;;;;5036256;28;9822;-80
2023/06/04 05:13:22;;;;;;;;;2.50;2.50;;;;;;;;5050542;28;9696;-81
2023/06/04 05:15:52;;;;;;;;;1.75;1.75;;;;;;;;5044646;28;10004;-81
2023/06/04 05:18:28;;;;;;;;;4.25;3.00;;;;;;;;5051717;28;9640;-86
2023/06/04 05:21:02;;;;;;;;;1.00;1.00;;;;;;;;5044627;28;9711;-86
2023/06/04 05:23:32;;;;;;;;;1.25;1.25;;;;;;;;5041622;28;9721;-82
2023/06/04 05:25:59;;;;;;;;;1.00;1.00;;;;;;;;5043606;28;9625;-83
2023/06/04 05:28:27;;;;;;;;;2.25;2.25;;;;;;;;5041618;28;9701;-85
2023/06/04 05:30:59;;;;;;;;;3.00;2.25;;;;;;;;5043330;28;9629;-85
2023/06/04 05:33:26;;;;;;;;;2.00;2.00;;;;;;;;5068614;28;9546;-84
2023/06/04 05:35:57;;;;;;;;;1.25;1.25;;;;;;;;5060944;28;10443;-79
2023/06/04 05:38:26;;;;;;;;;2.00;2.00;;;;;;;;5057625;28;9546;-80
2023/06/04 05:40:55;;;;;;;;;1.00;1.00;;;;;;;;5070231;28;10268;-85
2023/06/04 05:43:25;;;;;;;;;3.75;2.00;;;;;;;;5069149;28;10102;-80
2023/06/04 05:45:52;;;;;;;;;3.00;3.00;;;;;;;;5058124;28;9402;-80
2023/06/04 05:48:20;;;;;;;;;2.00;2.00;;;;;;;;5068112;28;9517;-84
2023/06/04 05:50:47;;;;;;;;;2.00;2.00;;;;;;;;5063393;28;9400;-80
2023/06/04 05:53:21;;;;;;;;;1.00;1.00;;;;;;;;5061407;28;9186;-85
2023/06/04 05:55:50;;;;;;;;;1.67;1.67;;;;;;;;5072291;28;9104;-88
2023/06/04 05:58:23;;;;;;;;;3.33;2.00;;;;;;;;5061484;28;9047;-88
2023/06/04 06:00:52;;;;;;;;;2.00;2.00;;;;;;;;5056328;28;9114;-86
2023/06/04 06:03:20;;;;;;;;;1.00;1.00;;;;;;;;5065932;28;8928;-82
2023/06/04 06:05:47;;;;;;;;;1.00;1.00;;;;;;;;5063605;28;9021;-88
2023/06/04 06:08:15;;;;;;;;;1.00;1.00;;;;;;;;5063653;28;8871;-87
2023/06/04 06:10:49;;;;;;;;;1.33;1.33;;;;;;;;5066335;28;8889;-88
2023/06/04 06:13:17;;;;;;;;;1.00;1.00;;;;;;;;5070538;28;8969;-87
2023/06/04 06:15:48;;;;;;;;;1.25;1.00;;;;;;;;5073336;28;9048;-88
2023/06/04 06:18:15;;;;;;;;;1.00;1.00;;;;;;;;5063466;28;8851;-87
2023/06/04 06:20:43;;;;;;;;;3.00;1.67;;;;;;;;5052812;28;8865;-83
2023/06/04 06:23:10;;;;;;;;;1.00;1.00;;;;;;;;5058285;28;8990;-90
2023/06/04 06:25:40;;;;;;;;;2.00;2.00;;;;;;;;5059397;28;8985;-85
2023/06/04 06:28:07;;;;;;;;;1.75;1.75;;;;;;;;5070340;28;8954;-86
2023/06/04 06:30:34;;;;;;;;;3.00;1.00;;;;;;;;5059726;28;8773;-83
2023/06/04 06:33:03;;;;;;;;;2.00;2.00;;;;;;;;5067723;28;8935;-85
2023/06/04 06:35:30;;;;;;;;;1.75;1.75;;;;;;;;5073878;28;8855;-89
2023/06/04 06:37:58;;;;;;;;;2.00;1.00;;;;;;;;5060854;28;8872;-83
2023/06/04 06:40:25;;;;;;;;;2.00;2.00;;;;;;;;5066374;28;9021;-88
2023/06/04 06:42:52;;;;;;;;;3.00;2.00;;;;;;;;5070784;28;8901;-87
2023/06/04 06:45:21;;;;;;;;;1.00;1.00;;;;;;;;5063496;28;8889;-87
2023/06/04 06:47:48;;;;;;;;;3.25;1.00;;;;;;;;5059564;28;8882;-85
2023/06/04 06:50:18;;;;;;;;;2.00;2.00;;;;;;;;5073363;28;8978;-81
2023/06/04 06:52:45;;;;;;;;;3.75;2.00;;;;;;;;5062578;28;8854;-82
2023/06/04 06:55:13;;;;;;;;;1.25;1.25;;;;;;;;5065546;28;8853;-84
2023/06/04 06:57:40;;;;;;;;;1.00;1.00;;;;;;;;5068848;28;8887;-83
2023/06/04 07:00:09;;;;;;;;;0.25;0.25;;;;;;;;5066672;28;8863;-81
2023/06/04 07:02:36;;;;;;;;;1.50;1.50;;;;;;;;5071575;28;8855;-84
2023/06/04 07:05:03;;;;;;;;;1.75;1.00;;;;;;;;5066764;28;8854;-81
2023/06/04 07:07:32;;;;;;;;;2.00;2.00;;;;;;;;5064225;28;9074;-83
2023/06/04 07:09:59;;;;;;;;;1.00;1.00;;;;;;;;5071021;28;8885;-85
2023/06/04 07:12:27;;;;;;;;;2.00;2.00;;;;;;;;5059879;28;8870;-86
2023/06/04 07:14:54;;;;;;;;;1.75;1.75;;;;;;;;5070395;28;8879;-85
2023/06/04 07:17:21;;;;;;;;;2.25;2.25;;;;;;;;5070198;28;8948;-84
2023/06/04 07:19:48;;;;;;;;;2.00;2.00;;;;;;;;5067753;28;8968;-81
2023/06/04 07:22:16;;;;;;;;;0.00;0.00;;;;;;;;5071880;28;8876;-83
2023/06/04 07:24:45;;;;;;;;;2.25;1.00;;;;;;;;5063526;28;8881;-84
2023/06/04 07:27:12;;;;;;;;;1.25;1.00;;;;;;;;5071076;28;8855;-84
2023/06/04 07:29:40;;;;;;;;;2.00;1.25;;;;;;;;5066523;28;8919;-80
2023/06/04 07:32:09;;;;;;;;;1.00;1.00;;;;;;;;5070265;28;8803;-83
2023/06/04 07:34:36;;;;;;;;;1.50;1.50;;;;;;;;5068064;28;8943;-80
2023/06/04 07:37:04;;;;;;;;;2.50;2.00;;;;;;;;5067225;28;8858;-78
2023/06/04 07:39:34;;;;;;;;;2.00;2.00;;;;;;;;5070577;28;8855;-82
2023/06/04 07:42:02;;;;;;;;;2.00;2.00;;;;;;;;5069785;28;9016;-80
2023/06/04 07:44:30;;;;;;;;;2.00;2.00;;;;;;;;5070361;28;8957;-79
2023/06/04 07:46:57;;;;;;;;;1.25;1.25;;;;;;;;5070462;28;9641;-83
2023/06/04 07:49:24;;;;;;;;;1.00;1.00;;;;;;;;5058358;28;8839;-80
2023/06/04 07:51:51;;;;;;;;;2.00;2.00;;;;;;;;5069826;28;8883;-82
2023/06/04 07:54:19;;;;;;;;;1.75;1.75;;;;;;;;5066087;28;8968;-79
2023/06/04 07:56:46;;;;;;;;;4.00;2.25;;;;;;;;5064295;28;8854;-82
2023/06/04 07:59:15;;;;;;;;;4.00;2.50;;;;;;;;5071587;28;8843;-83
2023/06/04 08:01:44;;;;;;;;;1.50;1.50;;;;;;;;5062950;28;8820;-80
2023/06/04 08:04:11;;;;;;;;;1.00;1.00;;;;;;;;5071357;28;9594;-80
2023/06/04 08:06:39;;;;;;;;;2.00;2.00;;;;;;;;5057246;28;8968;-79
2023/06/04 08:09:09;;;;;;;;;3.00;3.00;;;;;;;;5069737;28;8972;-80
2023/06/04 08:11:36;;;;;;;;;2.00;2.00;;;;;;;;5053910;28;8956;-82
2023/06/04 08:14:03;;;;;;;;;2.75;2.75;;;;;;;;5068175;28;8981;-81
2023/06/04 08:16:33;;;;;;;;;2.00;2.00;;;;;;;;5065992;28;8866;-80
2023/06/04 08:19:00;;;;;;;;;2.25;0.75;;;;;;;;5064402;28;8849;-81
2023/06/04 08:21:28;;;;;;;;;3.00;3.00;;;;;;;;5064703;28;8876;-81
2023/06/04 08:23:55;;;;;;;;;2.00;2.00;;;;;;;;5067809;28;8847;-81
2023/06/04 08:26:23;;;;;;;;;2.00;2.00;;;;;;;;5065770;28;8867;-77
2023/06/04 08:28:50;;;;;;;;;2.00;2.00;;;;;;;;5063308;28;8853;-78
2023/06/04 08:31:18;;;;;;;;;3.00;1.50;;;;;;;;5060145;28;8814;-79
2023/06/04 08:33:48;;;;;;;;;2.00;2.00;;;;;;;;5063422;28;8950;-77
2023/06/04 08:36:15;;;;;;;;;1.60;1.40;;;;;;;;5071885;28;8859;-78
2023/06/04 08:38:43;;;;;;;;;1.60;1.60;;;;;;;;5070348;28;8871;-78
2023/06/04 08:41:16;;;;;;;;;1.60;1.60;;;;;;;;5067498;28;8992;-79
2023/06/04 08:43:44;;;;;;;;;3.20;1.20;;;;;;;;5064323;28;8868;-80
2023/06/04 08:46:13;;;;;;;;;1.80;1.80;;;;;;;;5059330;28;8885;-81
2023/06/04 08:48:40;;;;;;;;;1.60;1.60;;;;;;;;5053314;28;8849;-77
2023/06/04 08:51:13;;;;;;;;;0.80;0.80;;;;;;;;5066598;28;8965;-87
2023/06/04 08:53:41;;;;;;;;;1.00;1.00;;;;;;;;5055018;28;8907;-82
2023/06/04 08:56:08;;;;;;;;;4.40;3.00;;;;;;;;5059129;28;8846;-80
2023/06/04 08:58:37;;;;;;;;;1.40;1.00;;;;;;;;5068107;28;8848;-81
2023/06/04 09:01:04;;;;;;;;;3.20;2.40;;;;;;;;5068089;28;9526;-80
2023/06/04 09:03:38;;;;;;;;;2.20;2.20;;;;;;;;5067004;28;9657;-80
2023/06/04 09:06:06;;;;;;;;;1.00;1.00;;;;;;;;5067780;28;8851;-81
2023/06/04 09:08:36;;;;;;;;;2.00;2.00;;;;;;;;5067375;28;9698;-80
2023/06/04 09:11:09;;;;;;;;;1.80;1.80;;;;;;;;5054564;28;8972;-79
2023/06/04 09:13:37;;;;;;;;;1.80;1.80;;;;;;;;5058573;28;8854;-82
2023/06/04 09:16:05;;;;;;;;;1.40;1.40;;;;;;;;5055927;28;8854;-77
2023/06/04 09:18:35;;;;;;;;;2.80;2.00;;;;;;;;5060682;28;8855;-78
2023/06/04 09:21:05;;;;;;;;;1.20;1.20;;;;;;;;5049579;28;8877;-84
2023/06/04 09:23:33;;;;;;;;;1.80;1.80;;;;;;;;5062272;28;8873;-79
2023/06/04 09:26:09;;;;;;;;;1.00;1.00;;;;;;;;5055764;28;9906;-82
2023/06/04 09:28:39;;;;;;;;;2.00;2.00;;;;;;;;5062185;28;8859;-82
2023/06/04 09:31:10;;;;;;;;;1.40;1.40;;;;;;;;5067637;28;8803;-84
2023/06/04 09:33:44;;;;;;;;;2.00;2.00;;;;;;;;5059668;28;8911;-84
2023/06/04 09:36:12;;;;;;;;;1.20;1.20;;;;;;;;5067981;28;8889;-84
2023/06/04 09:38:40;;;;;;;;;2.00;2.00;;;;;;;;5072597;28;8859;-85
2023/06/04 09:41:14;;;;;;;;;3.80;3.80;;;;;;;;5063569;28;8899;-82
2023/06/04 09:43:43;;;;;;;;;0.60;0.60;;;;;;;;5061622;28;8854;-83
2023/06/04 09:46:25;;;;;;;;;5.00;3.80;;;;;;;;5061431;28;8843;-85
2023/06/04 09:49:01;;;;;;;;;4.80;4.20;;;;;;;;5061768;28;8972;-85
2023/06/04 09:51:29;;;;;;;;;0.80;0.80;;;;;;;;5068845;28;8867;-83
2023/06/04 09:53:57;;;;;;;;;2.20;2.20;;;;;;;;5066641;28;8863;-80
2023/06/04 09:56:27;;;;;;;;;1.60;1.60;;;;;;;;5067684;28;9032;-80
2023/06/04 09:58:56;;;;;;;;;2.40;2.20;;;;;;;;5068489;28;8862;-79
2023/06/04 10:01:25;;;;;;;;;2.40;2.40;;;;;;;;5048796;28;8835;-83
2023/06/04 10:03:52;;;;;;;;;5.00;5.00;;;;;;;;5048700;28;8850;-78
2023/06/04 10:06:23;;;;;;;;;18.80;17.60;;;;;;;;5044988;28;8831;-78
2023/06/04 10:08:52;;;;;;;;;2.20;2.20;;;;;;;;5037537;28;8952;-80
2023/06/04 10:11:26;;;;;;;;;33.80;31.40;;;;;;;;5043187;28;8974;-83
2023/06/04 10:14:01;;;;;;;;;9.80;9.00;;;;;;;;5049597;28;8928;-82
2023/06/04 10:16:29;;;;;;;;;49.40;39.80;;;;;;;;5047136;28;8927;-80
2023/06/04 10:18:57;;;;;;;;;3.20;2.80;;;;;;;;5047272;28;8859;-82
2023/06/04 10:21:24;;;;;;;;;3.00;3.00;;;;;;;;5042358;28;8947;-82
2023/06/04 10:23:53;;;;;;;;;6.60;6.60;;;;;;;;5047817;28;8847;-82
2023/06/04 10:26:21;;;;;;;;;1.00;1.00;;;;;;;;5040692;28;8885;-81
2023/06/04 10:28:51;;;;;;;;;0.20;0.20;;;;;;;;5039631;28;9621;-79
2023/06/04 10:31:19;;;;;;;;;3.60;3.60;;;;;;;;5043051;28;8802;-84
2023/06/04 10:33:46;;;;;;;;;2.00;2.00;;;;;;;;5032856;28;8893;-80
2023/06/04 10:36:20;;;;;;;;;3.00;3.00;;;;;;;;5033442;28;8919;-82
2023/06/04 10:38:48;;;;;;;;;1.00;1.00;;;;;;;;5038731;28;9575;-80
2023/06/04 10:41:16;;;;;;;;;1.60;0.00;;;;;;;;5047438;28;8885;-79
2023/06/04 10:43:52;;;;;;;;;14.20;14.20;;;;;;;;5045106;28;8875;-79
2023/06/04 10:46:20;;;;;;;;;3.60;2.00;;;;;;;;5043517;28;8871;-77
2023/06/04 10:48:52;;;;;;;;;1.00;1.00;;;;;;;;5028505;28;8869;-81
2023/06/04 10:51:31;;;;;;;;;1.00;1.00;;;;;;;;5033772;28;8855;-83
2023/06/04 10:53:59;;;;;;;;;2.00;1.00;;;;;;;;5047220;28;8875;-78
2023/06/04 10:56:27;;;;;;;;;1.00;1.00;;;;;;;;5037325;28;9002;-80
2023/06/04 10:58:56;;;;;;;;;2.60;2.60;;;;;;;;5039187;28;8871;-78
2023/06/04 11:01:30;;;;;;;;;2.20;0.60;;;;;;;;5037218;28;8792;-80
2023/06/04 11:03:57;;;;;;;;;1.00;1.00;;;;;;;;5045252;28;8844;-78
2023/06/04 11:06:27;;;;;;;;;1.40;1.40;;;;;;;;5032414;28;8878;-82
2023/06/04 11:09:03;;;;;;;;;1.00;1.00;;;;;;;;5038544;28;8855;-80
2023/06/04 11:11:31;;;;;;;;;1.20;1.20;;;;;;;;5040320;28;8862;-85
2023/06/04 11:14:08;;;;;;;;;2.80;2.00;;;;;;;;5050695;28;8839;-82
2023/06/04 11:16:41;;;;;;;;;1.00;1.00;;;;;;;;5053966;28;9786;-83
2023/06/04 11:19:23;;;;;;;;;0.60;0.60;;;;;;;;5052202;28;8874;-83
2023/06/04 11:21:50;;;;;;;;;3.00;3.00;;;;;;;;5045863;28;8847;-86
2023/06/04 11:24:44;;;;;;;;;0.40;0.40;;;;;;;;5047199;28;8913;-84
2023/06/04 11:27:12;;;;;;;;;0.20;0.20;;;;;;;;5013391;28;8938;-83
2023/06/04 11:29:42;;;;;;;;;2.00;2.00;;;;;;;;5051311;28;8859;-85
2023/06/04 11:32:21;;;;;;;;;3.80;1.00;;;;;;;;5041825;28;9553;-85
2023/06/04 11:34:48;;;;;;;;;2.00;2.00;;;;;;;;5051449;28;8847;-85
2023/06/04 11:37:16;;;;;;;;;1.00;1.00;;;;;;;;5048077;28;8905;-84
2023/06/04 11:39:44;;;;;;;;;2.00;2.00;;;;;;;;5036208;28;8868;-87
2023/06/04 11:42:12;;;;;;;;;1.60;0.60;;;;;;;;5038285;28;8862;-82
2023/06/04 11:44:45;;;;;;;;;1.20;1.20;;;;;;;;5036976;28;8918;-83
2023/06/04 11:47:13;;;;;;;;;0.00;0.00;;;;;;;;5052103;28;8942;-81
2023/06/04 11:49:43;;;;;;;;;0.00;0.00;;;;;;;;5053505;28;8858;-83
2023/06/04 11:52:10;;;;;;;;;2.00;2.00;;;;;;;;5052634;28;8886;-82
2023/06/04 11:54:39;;;;;;;;;0.60;0.60;;;;;;;;5040847;28;8953;-83
2023/06/04 11:57:07;;;;;;;;;1.00;1.00;;;;;;;;5053102;28;8897;-83
2023/06/04 11:59:34;;;;;;;;;0.00;0.00;;;;;;;;5051482;28;8847;-84
2023/06/04 12:02:03;;;;;;;;;1.00;1.00;;;;;;;;5032208;28;8810;-84
2023/06/04 12:04:32;;;;;;;;;0.60;0.60;;;;;;;;5044917;28;8858;-81
2023/06/04 12:07:01;;;;;;;;;0.80;0.80;;;;;;;;5039893;28;8871;-83
2023/06/04 12:09:31;;;;;;;;;2.80;2.00;;;;;;;;5051356;28;8913;-83
2023/06/04 12:12:02;;;;;;;;;2.80;2.80;;;;;;;;5047171;28;8859;-84
2023/06/04 12:14:30;;;;;;;;;24.20;24.20;;;;;;;;5045721;28;8855;-82
2023/06/04 12:16:58;;;;;;;;;1.60;1.60;;;;;;;;5045527;28;8859;-83
2023/06/04 12:19:31;;;;;;;;;1.00;1.00;;;;;;;;5045577;28;8974;-83
2023/06/04 12:22:02;;;;;;;;;1.20;1.00;;;;;;;;5049371;28;8903;-82
2023/06/04 12:24:30;;;;;;;;;2.60;1.00;;;;;;;;5049056;28;8843;-80
2023/06/04 12:27:04;;;;;;;;;1.80;0.60;;;;;;;;5048118;28;9289;-82
2023/06/04 12:29:32;;;;;;;;;0.40;0.40;;;;;;;;5050080;28;8874;-85
2023/06/04 12:32:08;;;;;;;;;1.00;1.00;;;;;;;;5046678;28;8902;-85
2023/06/04 12:34:37;;;;;;;;;0.00;0.00;;;;;;;;5044913;28;8874;-85
2023/06/04 12:37:05;;;;;;;;;1.00;1.00;;;;;;;;5043580;28;8970;-83
2023/06/04 12:39:36;;;;;;;;;2.20;1.60;;;;;;;;5036460;28;9696;-84
2023/06/04 12:42:04;;;;;;;;;2.40;1.80;;;;;;;;5041472;28;8870;-85
2023/06/04 12:44:32;;;;;;;;;1.60;1.60;;;;;;;;5045688;28;8877;-85
2023/06/04 12:46:59;;;;;;;;;0.20;0.20;;;;;;;;5048693;28;9780;-83
2023/06/04 12:49:26;;;;;;;;;1.00;1.00;;;;;;;;5049676;28;8859;-83
2023/06/04 12:52:00;;;;;;;;;2.20;2.20;;;;;;;;5052230;28;8867;-86
2023/06/04 12:54:27;;;;;;;;;0.40;0.40;;;;;;;;5044348;28;9001;-84
2023/06/04 12:56:56;;;;;;;;;0.00;0.00;;;;;;;;5051850;28;8874;-79
2023/06/04 12:59:23;;;;;;;;;0.00;0.00;;;;;;;;5047117;28;8913;-84
2023/06/04 13:01:51;;;;;;;;;0.80;0.80;;;;;;;;5049382;28;8876;-83
2023/06/04 13:04:18;;;;;;;;;1.80;1.80;;;;;;;;5045481;28;8994;-82
2023/06/04 13:06:48;;;;;;;;;1.00;1.00;;;;;;;;5040551;28;8873;-82
2023/06/04 13:09:19;;;;;;;;;0.00;0.00;;;;;;;;5045090;28;8878;-82
2023/06/04 13:11:48;;;;;;;;;0.80;0.80;;;;;;;;5047209;28;9699;-86
2023/06/04 13:14:15;;;;;;;;;2.00;1.00;;;;;;;;5049468;28;8851;-82
2023/06/04 13:16:42;;;;;;;;;0.20;0.20;;;;;;;;5048173;28;8851;-79
2023/06/04 13:19:10;;;;;;;;;0.80;0.80;;;;;;;;5042021;28;8845;-83
2023/06/04 13:21:37;;;;;;;;;0.00;0.00;;;;;;;;5042116;28;8961;-82
2023/06/04 13:24:05;;;;;;;;;0.00;0.00;;;;;;;;5039060;28;8877;-81
2023/06/04 13:26:34;;;;;;;;;1.00;1.00;;;;;;;;5047017;28;9625;-83
2023/06/04 13:29:01;;;;;;;;;0.00;0.00;;;;;;;;5041282;28;8889;-83
2023/06/04 13:31:29;;;;;;;;;1.80;0.80;;;;;;;;5035736;28;8857;-84
2023/06/04 13:33:56;;;;;;;;;2.00;1.00;;;;;;;;5050879;28;8854;-86
2023/06/04 13:36:23;;;;;;;;;1.40;0.80;;;;;;;;5032616;28;8864;-85
2023/06/04 13:38:52;;;;;;;;;0.00;0.00;;;;;;;;5047748;28;8873;-84
2023/06/04 13:41:20;;;;;;;;;1.80;0.40;;;;;;;;5049302;28;8844;-87
2023/06/04 13:43:49;;;;;;;;;1.00;1.00;;;;;;;;5046341;28;8827;-84
2023/06/04 13:46:17;;;;;;;;;0.00;0.00;;;;;;;;5043940;28;8835;-83
2023/06/04 13:48:44;;;;;;;;;1.80;1.80;;;;;;;;5049564;28;9634;-89
2023/06/04 13:51:11;;;;;;;;;0.00;0.00;;;;;;;;5044890;28;8858;-89
2023/06/04 13:53:38;;;;;;;;;1.00;1.00;;;;;;;;5040210;28;8889;-83
2023/06/04 13:56:06;;;;;;;;;0.00;0.00;;;;;;;;5048170;28;8855;-83
2023/06/04 13:58:33;;;;;;;;;2.00;2.00;;;;;;;;5048076;28;8983;-84
2023/06/04 14:01:02;;;;;;;;;0.20;0.20;;;;;;;;5036867;28;9360;-83
2023/06/04 14:03:29;;;;;;;;;0.20;0.20;;;;;;;;5044528;28;8855;-80
2023/06/04 14:05:56;;;;;;;;;0.40;0.40;;;;;;;;5047071;28;8860;-83
2023/06/04 14:08:23;;;;;;;;;0.00;0.00;;;;;;;;5037058;28;8846;-82
2023/06/04 14:10:51;;;;;;;;;0.80;0.80;;;;;;;;5045733;28;8972;-82
2023/06/04 14:13:19;;;;;;;;;1.00;1.00;;;;;;;;5046721;28;8914;-85
2023/06/04 14:15:48;;;;;;;;;1.00;1.00;;;;;;;;5047938;28;8846;-81
2023/06/04 14:18:17;;;;;;;;;0.00;0.00;;;;;;;;5036026;28;8977;-81
2023/06/04 14:20:47;;;;;;;;;1.00;1.00;;;;;;;;5047914;28;8922;-82
2023/06/04 14:23:16;;;;;;;;;1.00;1.00;;;;;;;;5045160;28;8981;-81
2023/06/04 14:25:43;;;;;;;;;0.00;0.00;;;;;;;;5041671;28;8960;-81
2023/06/04 14:28:10;;;;;;;;;0.40;0.40;;;;;;;;5039625;28;8977;-81
2023/06/04 14:30:38;;;;;;;;;1.20;1.20;;;;;;;;5041037;28;8807;-81
2023/06/04 14:33:05;;;;;;;;;0.00;0.00;;;;;;;;5041932;28;8979;-81
2023/06/04 14:35:34;;;;;;;;;0.60;0.60;;;;;;;;5049138;28;8839;-81
2023/06/04 14:38:01;;;;;;;;;0.00;0.00;;;;;;;;5047435;28;9692;-82
2023/06/04 14:40:29;;;;;;;;;1.00;1.00;;;;;;;;5045475;28;8879;-80
2023/06/04 14:42:57;;;;;;;;;0.00;0.00;;;;;;;;5036029;28;8859;-81
2023/06/04 14:45:24;;;;;;;;;1.00;1.00;;;;;;;;5032834;28;8928;-79
2023/06/04 14:47:51;;;;;;;;;0.00;0.00;;;;;;;;5046044;28;8969;-78
2023/06/04 14:50:19;;;;;;;;;1.00;1.00;;;;;;;;5036652;28;8886;-83
2023/06/04 14:52:48;;;;;;;;;0.00;0.00;;;;;;;;5036649;28;8838;-82
2023/06/04 14:55:15;;;;;;;;;1.00;1.00;;;;;;;;5047974;28;8871;-80
2023/06/04 14:57:42;;;;;;;;;1.00;1.00;;;;;;;;5050957;28;8851;-80
2023/06/04 15:00:10;;;;;;;;;0.40;0.40;;;;;;;;5044767;28;8883;-81
2023/06/04 15:02:37;;;;;;;;;1.00;1.00;;;;;;;;5050405;28;8839;-83